sensor_id;sensor_type;location;lat;lon;timestamp;pressure;altitude;pressure_sealevel;temperature;humidity
5138;BME280;53959;53.626;11.410;2023-03-13T00:00:15;99758.25;;;4.46;89.09
5138;BME280;53959;53.626;11.410;2023-03-13T00:02:41;99756.44;;;4.50;88.50
5138;BME280;53959;53.626;11.410;2023-03-13T00:05:12;99741.44;;;4.55;88.53
5138;BME280;53959;53.626;11.410;2023-03-13T00:07:38;99745.84;;;4.54;88.21
5138;BME280;53959;53.626;11.410;2023-03-13T00:10:04;99746.69;;;4.55;88.76
5138;BME280;53959;53.626;11.410;2023-03-13T00:12:30;99737.91;;;4.57;88.58
5138;BME280;53959;53.626;11.410;2023-03-13T00:14:55;99743.97;;;4.61;88.31
5138;BME280;53959;53.626;11.410;2023-03-13T00:17:21;99740.53;;;4.57;88.20
5138;BME280;53959;53.626;11.410;2023-03-13T00:19:46;99743.16;;;4.57;88.32
5138;BME280;53959;53.626;11.410;2023-03-13T00:22:11;99733.44;;;4.62;88.29
5138;BME280;53959;53.626;11.410;2023-03-13T00:24:37;99729.13;;;4.58;88.32
5138;BME280;53959;53.626;11.410;2023-03-13T00:27:02;99732.53;;;4.65;88.30
5138;BME280;53959;53.626;11.410;2023-03-13T00:29:31;99727.22;;;4.68;87.97
5138;BME280;53959;53.626;11.410;2023-03-13T00:31:57;99728.06;;;4.70;87.94
5138;BME280;53959;53.626;11.410;2023-03-13T00:34:22;99729.81;;;4.70;87.93
5138;BME280;53959;53.626;11.410;2023-03-13T00:36:51;99727.97;;;4.75;87.77
5138;BME280;53959;53.626;11.410;2023-03-13T00:39:16;99726.22;;;4.74;87.81
5138;BME280;53959;53.626;11.410;2023-03-13T00:41:41;99717.50;;;4.72;87.64
5138;BME280;53959;53.626;11.410;2023-03-13T00:44:08;99714.91;;;4.70;87.62
5138;BME280;53959;53.626;11.410;2023-03-13T00:46:33;99716.59;;;4.73;88.01
5138;BME280;53959;53.626;11.410;2023-03-13T00:48:58;99713.16;;;4.71;87.68
5138;BME280;53959;53.626;11.410;2023-03-13T00:51:25;99706.94;;;4.73;88.19
5138;BME280;53959;53.626;11.410;2023-03-13T00:53:51;99697.28;;;4.74;87.83
5138;BME280;53959;53.626;11.410;2023-03-13T00:56:18;99700.69;;;4.80;87.95
5138;BME280;53959;53.626;11.410;2023-03-13T00:58:45;99695.47;;;4.77;87.45
5138;BME280;53959;53.626;11.410;2023-03-13T01:01:23;99691.97;;;4.78;87.42
5138;BME280;53959;53.626;11.410;2023-03-13T01:03:51;99697.19;;;4.80;87.77
5138;BME280;53959;53.626;11.410;2023-03-13T01:06:19;99697.16;;;4.83;87.56
5138;BME280;53959;53.626;11.410;2023-03-13T01:08:45;99694.50;;;4.83;87.52
5138;BME280;53959;53.626;11.410;2023-03-13T01:11:17;99698.78;;;4.88;87.61
5138;BME280;53959;53.626;11.410;2023-03-13T01:13:43;99690.75;;;4.96;87.26
5138;BME280;53959;53.626;11.410;2023-03-13T01:16:15;99694.28;;;4.97;87.74
5138;BME280;53959;53.626;11.410;2023-03-13T01:18:44;99685.56;;;4.93;87.17
5138;BME280;53959;53.626;11.410;2023-03-13T01:21:10;99682.94;;;4.93;87.09
5138;BME280;53959;53.626;11.410;2023-03-13T01:23:36;99674.97;;;4.96;87.75
5138;BME280;53959;53.626;11.410;2023-03-13T01:26:04;99675.91;;;4.92;87.32
5138;BME280;53959;53.626;11.410;2023-03-13T01:28:30;99667.97;;;4.95;87.56
5138;BME280;53959;53.626;11.410;2023-03-13T01:30:55;99657.44;;;4.95;87.15
5138;BME280;53959;53.626;11.410;2023-03-13T01:33:20;99652.19;;;4.95;87.76
5138;BME280;53959;53.626;11.410;2023-03-13T01:35:46;99648.72;;;4.93;87.22
5138;BME280;53959;53.626;11.410;2023-03-13T01:38:12;99640.84;;;4.93;87.74
5138;BME280;53959;53.626;11.410;2023-03-13T01:40:39;99644.25;;;4.98;87.18
5138;BME280;53959;53.626;11.410;2023-03-13T01:43:25;99639.06;;;4.94;87.75
5138;BME280;53959;53.626;11.410;2023-03-13T01:46:18;99635.59;;;4.92;87.91
5138;BME280;53959;53.626;11.410;2023-03-13T01:49:07;99624.16;;;4.94;87.72
5138;BME280;53959;53.626;11.410;2023-03-13T01:51:44;99615.34;;;4.95;87.77
5138;BME280;53959;53.626;11.410;2023-03-13T01:54:25;99607.44;;;4.97;87.64
5138;BME280;53959;53.626;11.410;2023-03-13T01:57:08;99605.69;;;4.96;87.84
5138;BME280;53959;53.626;11.410;2023-03-13T01:59:43;99589.94;;;4.93;87.87
5138;BME280;53959;53.626;11.410;2023-03-13T02:02:10;99595.31;;;4.90;87.98
5138;BME280;53959;53.626;11.410;2023-03-13T02:04:39;99593.53;;;4.90;87.86
5138;BME280;53959;53.626;11.410;2023-03-13T02:07:13;99587.31;;;4.94;87.66
5138;BME280;53959;53.626;11.410;2023-03-13T02:09:41;99583.03;;;4.88;87.79
5138;BME280;53959;53.626;11.410;2023-03-13T02:12:13;99578.72;;;4.86;87.94
5138;BME280;53959;53.626;11.410;2023-03-13T02:14:42;99569.78;;;4.93;87.58
5138;BME280;53959;53.626;11.410;2023-03-13T02:17:09;99562.88;;;4.87;87.52
5138;BME280;53959;53.626;11.410;2023-03-13T02:19:49;99564.53;;;4.93;87.87
5138;BME280;53959;53.626;11.410;2023-03-13T02:22:24;99557.50;;;4.92;88.15
5138;BME280;53959;53.626;11.410;2023-03-13T02:27:29;99549.41;;;5.03;88.26
5138;BME280;53959;53.626;11.410;2023-03-13T02:29:55;99552.03;;;5.04;88.28
5138;BME280;53959;53.626;11.410;2023-03-13T02:32:22;99548.59;;;4.99;88.69
5138;BME280;53959;53.626;11.410;2023-03-13T02:34:50;99538.00;;;5.02;88.79
5138;BME280;53959;53.626;11.410;2023-03-13T02:37:18;99539.88;;;4.97;89.04
5138;BME280;53959;53.626;11.410;2023-03-13T02:39:46;99526.69;;;4.99;88.78
5138;BME280;53959;53.626;11.410;2023-03-13T02:42:14;99521.47;;;4.96;88.96
5138;BME280;53959;53.626;11.410;2023-03-13T02:44:42;99517.03;;;4.99;88.75
5138;BME280;53959;53.626;11.410;2023-03-13T02:47:08;99519.66;;;4.99;88.62
5138;BME280;53959;53.626;11.410;2023-03-13T02:49:35;99517.81;;;5.03;88.91
5138;BME280;53959;53.626;11.410;2023-03-13T02:52:23;99504.56;;;5.07;88.71
5138;BME280;53959;53.626;11.410;2023-03-13T02:54:57;99501.88;;;5.10;89.04
5138;BME280;53959;53.626;11.410;2023-03-13T02:57:25;99495.56;;;5.19;88.79
5138;BME280;53959;53.626;11.410;2023-03-13T02:59:50;99498.09;;;5.22;88.54
5138;BME280;53959;53.626;11.410;2023-03-13T03:02:16;99491.91;;;5.25;88.41
5138;BME280;53959;53.626;11.410;2023-03-13T03:04:41;99479.66;;;5.24;88.21
5138;BME280;53959;53.626;11.410;2023-03-13T03:07:08;99475.19;;;5.26;88.26
5138;BME280;53959;53.626;11.410;2023-03-13T03:09:34;99471.63;;;5.28;88.43
5138;BME280;53959;53.626;11.410;2023-03-13T03:12:05;99474.94;;;5.36;88.26
5138;BME280;53959;53.626;11.410;2023-03-13T03:14:31;99471.47;;;5.36;87.86
5138;BME280;53959;53.626;11.410;2023-03-13T03:16:56;99457.25;;;5.43;87.75
5138;BME280;53959;53.626;11.410;2023-03-13T03:19:23;99460.63;;;5.48;87.67
5138;BME280;53959;53.626;11.410;2023-03-13T03:21:49;99464.13;;;5.49;87.63
5138;BME280;53959;53.626;11.410;2023-03-13T03:24:17;99465.00;;;5.49;87.49
5138;BME280;53959;53.626;11.410;2023-03-13T03:26:42;99459.66;;;5.52;87.22
5138;BME280;53959;53.626;11.410;2023-03-13T03:29:15;99457.00;;;5.54;87.10
5138;BME280;53959;53.626;11.410;2023-03-13T03:31:40;99447.38;;;5.53;87.19
5138;BME280;53959;53.626;11.410;2023-03-13T03:34:07;99440.47;;;5.47;87.11
5138;BME280;53959;53.626;11.410;2023-03-13T03:36:32;99440.41;;;5.50;87.17
5138;BME280;53959;53.626;11.410;2023-03-13T03:38:59;99446.66;;;5.45;87.16
5138;BME280;53959;53.626;11.410;2023-03-13T03:41:25;99431.72;;;5.47;86.95
5138;BME280;53959;53.626;11.410;2023-03-13T03:43:51;99434.38;;;5.45;86.79
5138;BME280;53959;53.626;11.410;2023-03-13T03:46:20;99431.78;;;5.44;87.02
5138;BME280;53959;53.626;11.410;2023-03-13T03:48:46;99429.16;;;5.44;87.01
5138;BME280;53959;53.626;11.410;2023-03-13T03:51:12;99427.38;;;5.44;86.97
5138;BME280;53959;53.626;11.410;2023-03-13T03:53:40;99422.88;;;5.49;86.57
5138;BME280;53959;53.626;11.410;2023-03-13T03:56:06;99410.59;;;5.48;86.64
5138;BME280;53959;53.626;11.410;2023-03-13T03:58:34;99415.84;;;5.50;86.50
5138;BME280;53959;53.626;11.410;2023-03-13T04:01:22;99401.94;;;5.43;86.61
5138;BME280;53959;53.626;11.410;2023-03-13T04:03:47;99395.72;;;5.47;86.55
5138;BME280;53959;53.626;11.410;2023-03-13T04:06:13;99389.59;;;5.45;86.47
5138;BME280;53959;53.626;11.410;2023-03-13T04:08:39;99394.09;;;5.42;86.77
5138;BME280;53959;53.626;11.410;2023-03-13T04:11:05;99389.78;;;5.39;87.01
5138;BME280;53959;53.626;11.410;2023-03-13T04:13:35;99380.03;;;5.41;86.79
5138;BME280;53959;53.626;11.410;2023-03-13T04:16:06;99359.81;;;5.43;86.89
5138;BME280;53959;53.626;11.410;2023-03-13T04:18:31;99357.25;;;5.42;87.01
5138;BME280;53959;53.626;11.410;2023-03-13T04:21:01;99353.56;;;5.47;86.71
5138;BME280;53959;53.626;11.410;2023-03-13T04:23:27;99345.75;;;5.44;86.94
5138;BME280;53959;53.626;11.410;2023-03-13T04:25:52;99340.47;;;5.44;86.92
5138;BME280;53959;53.626;11.410;2023-03-13T04:28:18;99335.06;;;5.50;86.87
5138;BME280;53959;53.626;11.410;2023-03-13T04:30:43;99328.97;;;5.48;87.14
5138;BME280;53959;53.626;11.410;2023-03-13T04:33:20;99314.03;;;5.49;87.23
5138;BME280;53959;53.626;11.410;2023-03-13T04:36:01;99306.03;;;5.52;87.28
5138;BME280;53959;53.626;11.410;2023-03-13T04:39:05;99305.19;;;5.51;87.14
5138;BME280;53959;53.626;11.410;2023-03-13T04:41:54;99291.22;;;5.48;87.37
5138;BME280;53959;53.626;11.410;2023-03-13T04:44:38;99286.63;;;5.56;87.16
5138;BME280;53959;53.626;11.410;2023-03-13T04:47:24;99281.47;;;5.51;87.07
5138;BME280;53959;53.626;11.410;2023-03-13T04:50:10;99279.72;;;5.52;87.36
5138;BME280;53959;53.626;11.410;2023-03-13T04:52:46;99271.00;;;5.50;87.81
5138;BME280;53959;53.626;11.410;2023-03-13T04:55:22;99260.47;;;5.50;87.88
5138;BME280;53959;53.626;11.410;2023-03-13T04:58:08;99256.88;;;5.52;87.40
5138;BME280;53959;53.626;11.410;2023-03-13T05:00:44;99247.09;;;5.57;87.83
5138;BME280;53959;53.626;11.410;2023-03-13T05:03:26;99252.34;;;5.57;87.91
5138;BME280;53959;53.626;11.410;2023-03-13T05:06:14;99230.38;;;5.58;87.80
5138;BME280;53959;53.626;11.410;2023-03-13T05:08:58;99219.91;;;5.57;87.80
5138;BME280;53959;53.626;11.410;2023-03-13T05:11:35;99218.06;;;5.59;88.23
5138;BME280;53959;53.626;11.410;2023-03-13T05:14:21;99200.53;;;5.58;88.02
5138;BME280;53959;53.626;11.410;2023-03-13T05:17:08;99196.84;;;5.64;88.29
5138;BME280;53959;53.626;11.410;2023-03-13T05:19:55;99187.28;;;5.61;88.15
5138;BME280;53959;53.626;11.410;2023-03-13T05:22:28;99183.59;;;5.67;88.01
5138;BME280;53959;53.626;11.410;2023-03-13T05:25:17;99177.41;;;5.68;88.03
5138;BME280;53959;53.626;11.410;2023-03-13T05:28:02;99173.06;;;5.67;88.36
5138;BME280;53959;53.626;11.410;2023-03-13T05:30:41;99166.09;;;5.66;88.13
5138;BME280;53959;53.626;11.410;2023-03-13T05:33:12;99164.38;;;5.65;88.53
5138;BME280;53959;53.626;11.410;2023-03-13T05:35:46;99155.53;;;5.66;88.32
5138;BME280;53959;53.626;11.410;2023-03-13T05:38:24;99144.16;;;5.65;88.20
5138;BME280;53959;53.626;11.410;2023-03-13T05:41:07;99139.78;;;5.64;88.44
5138;BME280;53959;53.626;11.410;2023-03-13T05:43:43;99129.97;;;5.69;88.41
5138;BME280;53959;53.626;11.410;2023-03-13T05:46:28;99118.50;;;5.72;88.36
5138;BME280;53959;53.626;11.410;2023-03-13T05:49:17;99110.22;;;5.82;88.14
5138;BME280;53959;53.626;11.410;2023-03-13T05:52:02;99101.38;;;5.85;88.24
5138;BME280;53959;53.626;11.410;2023-03-13T05:54:46;99101.44;;;5.83;88.27
5138;BME280;53959;53.626;11.410;2023-03-13T05:57:22;99106.59;;;5.87;88.17
5138;BME280;53959;53.626;11.410;2023-03-13T06:00:00;99089.84;;;5.89;88.38
5138;BME280;53959;53.626;11.410;2023-03-13T06:02:38;99079.25;;;5.91;88.16
5138;BME280;53959;53.626;11.410;2023-03-13T06:05:06;99087.97;;;5.94;88.34
5138;BME280;53959;53.626;11.410;2023-03-13T06:07:31;99073.88;;;5.95;88.36
5138;BME280;53959;53.626;11.410;2023-03-13T06:09:57;99079.75;;;6.03;88.11
5138;BME280;53959;53.626;11.410;2023-03-13T06:12:22;99077.88;;;6.07;88.34
5138;BME280;53959;53.626;11.410;2023-03-13T06:14:48;99061.41;;;6.00;88.11
5138;BME280;53959;53.626;11.410;2023-03-13T06:17:30;99058.56;;;6.06;88.45
5138;BME280;53959;53.626;11.410;2023-03-13T06:19:55;99048.97;;;6.04;88.47
5138;BME280;53959;53.626;11.410;2023-03-13T06:22:20;99042.75;;;6.06;88.54
5138;BME280;53959;53.626;11.410;2023-03-13T06:24:46;99054.16;;;6.07;88.65
5138;BME280;53959;53.626;11.410;2023-03-13T06:27:13;99045.31;;;6.10;88.73
5138;BME280;53959;53.626;11.410;2023-03-13T06:29:39;99053.13;;;6.11;88.81
5138;BME280;53959;53.626;11.410;2023-03-13T06:32:04;99052.94;;;6.17;88.73
5138;BME280;53959;53.626;11.410;2023-03-13T06:34:30;99036.25;;;6.17;88.78
5138;BME280;53959;53.626;11.410;2023-03-13T06:36:55;99027.53;;;6.15;88.89
5138;BME280;53959;53.626;11.410;2023-03-13T06:39:23;99023.22;;;6.12;89.13
5138;BME280;53959;53.626;11.410;2023-03-13T06:41:48;99009.03;;;6.16;89.08
5138;BME280;53959;53.626;11.410;2023-03-13T06:44:14;98999.22;;;6.21;89.26
5138;BME280;53959;53.626;11.410;2023-03-13T06:46:39;99008.00;;;6.20;89.21
5138;BME280;53959;53.626;11.410;2023-03-13T06:49:04;98997.38;;;6.23;89.40
5138;BME280;53959;53.626;11.410;2023-03-13T06:51:30;98996.56;;;6.21;89.23
5138;BME280;53959;53.626;11.410;2023-03-13T06:53:56;98990.38;;;6.22;89.30
5138;BME280;53959;53.626;11.410;2023-03-13T06:56:21;98987.69;;;6.24;89.23
5138;BME280;53959;53.626;11.410;2023-03-13T06:58:47;98977.09;;;6.25;89.40
5138;BME280;53959;53.626;11.410;2023-03-13T07:01:14;98969.94;;;6.29;89.20
5138;BME280;53959;53.626;11.410;2023-03-13T07:03:40;98971.31;;;6.39;89.30
5138;BME280;53959;53.626;11.410;2023-03-13T07:06:06;98972.94;;;6.43;89.16
5138;BME280;53959;53.626;11.410;2023-03-13T07:08:33;98963.41;;;6.39;88.88
5138;BME280;53959;53.626;11.410;2023-03-13T07:11:07;98964.88;;;6.48;89.09
5138;BME280;53959;53.626;11.410;2023-03-13T07:13:33;98948.75;;;6.55;88.99
5138;BME280;53959;53.626;11.410;2023-03-13T07:15:59;98950.59;;;6.53;88.88
5138;BME280;53959;53.626;11.410;2023-03-13T07:18:25;98958.47;;;6.55;89.09
5138;BME280;53959;53.626;11.410;2023-03-13T07:20:52;98938.16;;;6.57;89.14
5138;BME280;53959;53.626;11.410;2023-03-13T07:23:18;98930.00;;;6.63;89.06
5138;BME280;53959;53.626;11.410;2023-03-13T07:26:04;98907.25;;;6.61;89.06
5138;BME280;53959;53.626;11.410;2023-03-13T07:28:30;98935.22;;;6.65;89.06
5138;BME280;53959;53.626;11.410;2023-03-13T07:31:04;98932.59;;;6.65;89.35
5138;BME280;53959;53.626;11.410;2023-03-13T07:33:29;98928.22;;;6.64;89.46
5138;BME280;53959;53.626;11.410;2023-03-13T07:35:55;98927.09;;;6.71;89.24
5138;BME280;53959;53.626;11.410;2023-03-13T07:38:20;98898.94;;;6.71;89.25
5138;BME280;53959;53.626;11.410;2023-03-13T07:40:54;98898.75;;;6.76;89.49
5138;BME280;53959;53.626;11.410;2023-03-13T07:43:20;98916.50;;;6.94;89.13
5138;BME280;53959;53.626;11.410;2023-03-13T07:48:22;98902.28;;;6.98;88.68
5138;BME280;53959;53.626;11.410;2023-03-13T07:50:47;98885.66;;;6.96;89.02
5138;BME280;53959;53.626;11.410;2023-03-13T07:53:13;98891.66;;;7.00;88.86
5138;BME280;53959;53.626;11.410;2023-03-13T07:55:53;98888.28;;;6.96;88.93
5138;BME280;53959;53.626;11.410;2023-03-13T07:58:19;98871.88;;;7.10;88.97
5138;BME280;53959;53.626;11.410;2023-03-13T08:00:44;98868.28;;;7.13;88.89
5138;BME280;53959;53.626;11.410;2023-03-13T08:03:10;98879.75;;;7.12;89.90
5138;BME280;53959;53.626;11.410;2023-03-13T08:05:35;98864.91;;;7.09;90.10
5138;BME280;53959;53.626;11.410;2023-03-13T08:08:00;98866.69;;;7.09;89.49
5138;BME280;53959;53.626;11.410;2023-03-13T08:10:26;98866.59;;;7.10;89.42
5138;BME280;53959;53.626;11.410;2023-03-13T08:12:51;98854.22;;;7.12;89.61
5138;BME280;53959;53.626;11.410;2023-03-13T08:15:16;98842.69;;;7.15;89.43
5138;BME280;53959;53.626;11.410;2023-03-13T08:17:45;98842.59;;;7.16;89.69
5138;BME280;53959;53.626;11.410;2023-03-13T08:20:11;98843.34;;;7.20;89.61
5138;BME280;53959;53.626;11.410;2023-03-13T08:22:36;98849.41;;;7.22;89.67
5138;BME280;53959;53.626;11.410;2023-03-13T08:25:02;98847.78;;;7.19;89.63
5138;BME280;53959;53.626;11.410;2023-03-13T08:27:28;98856.53;;;7.20;89.66
5138;BME280;53959;53.626;11.410;2023-03-13T08:29:54;98851.31;;;7.18;90.01
5138;BME280;53959;53.626;11.410;2023-03-13T08:32:19;98836.34;;;7.19;89.89
5138;BME280;53959;53.626;11.410;2023-03-13T08:34:46;98838.06;;;7.20;90.22
5138;BME280;53959;53.626;11.410;2023-03-13T08:37:14;98838.84;;;7.22;90.25
5138;BME280;53959;53.626;11.410;2023-03-13T08:39:40;98828.16;;;7.25;90.07
5138;BME280;53959;53.626;11.410;2023-03-13T08:42:07;98829.72;;;7.30;90.33
5138;BME280;53959;53.626;11.410;2023-03-13T08:44:35;98823.63;;;7.28;90.34
5138;BME280;53959;53.626;11.410;2023-03-13T08:47:00;98819.91;;;7.33;90.18
5138;BME280;53959;53.626;11.410;2023-03-13T08:49:26;98822.63;;;7.31;90.40
5138;BME280;53959;53.626;11.410;2023-03-13T08:51:51;98812.94;;;7.32;90.40
5138;BME280;53959;53.626;11.410;2023-03-13T08:54:16;98811.69;;;7.40;90.50
5138;BME280;53959;53.626;11.410;2023-03-13T08:56:42;98811.44;;;7.46;90.53
5138;BME280;53959;53.626;11.410;2023-03-13T08:59:08;98795.44;;;7.49;90.46
5138;BME280;53959;53.626;11.410;2023-03-13T09:01:35;98799.69;;;7.53;90.50
5138;BME280;53959;53.626;11.410;2023-03-13T09:04:02;98798.09;;;7.49;90.73
5138;BME280;53959;53.626;11.410;2023-03-13T09:06:27;98786.34;;;7.57;90.49
5138;BME280;53959;53.626;11.410;2023-03-13T09:08:55;98780.13;;;7.58;90.63
5138;BME280;53959;53.626;11.410;2023-03-13T09:11:20;98779.06;;;7.62;90.46
5138;BME280;53959;53.626;11.410;2023-03-13T09:13:48;98772.72;;;7.66;90.36
5138;BME280;53959;53.626;11.410;2023-03-13T09:16:26;98776.00;;;7.71;90.64
5138;BME280;53959;53.626;11.410;2023-03-13T09:18:52;98771.44;;;7.74;90.62
5138;BME280;53959;53.626;11.410;2023-03-13T09:21:20;98770.47;;;7.77;90.82
5138;BME280;53959;53.626;11.410;2023-03-13T09:23:46;98768.41;;;7.84;90.63
5138;BME280;53959;53.626;11.410;2023-03-13T09:26:12;98756.84;;;7.86;90.73
5138;BME280;53959;53.626;11.410;2023-03-13T09:28:38;98761.56;;;7.98;90.81
5138;BME280;53959;53.626;11.410;2023-03-13T09:31:14;98757.06;;;8.00;90.62
5138;BME280;53959;53.626;11.410;2023-03-13T09:33:41;98749.56;;;8.10;90.49
5138;BME280;53959;53.626;11.410;2023-03-13T09:36:08;98747.28;;;8.21;90.61
5138;BME280;53959;53.626;11.410;2023-03-13T09:38:34;98745.78;;;8.35;90.35
5138;BME280;53959;53.626;11.410;2023-03-13T09:41:04;98737.69;;;8.39;90.45
5138;BME280;53959;53.626;11.410;2023-03-13T09:44:01;98735.50;;;8.47;90.27
5138;BME280;53959;53.626;11.410;2023-03-13T09:46:38;98743.13;;;8.54;90.32
5138;BME280;53959;53.626;11.410;2023-03-13T09:49:19;98729.78;;;8.57;90.22
5138;BME280;53959;53.626;11.410;2023-03-13T09:51:50;98732.00;;;8.66;90.31
5138;BME280;53959;53.626;11.410;2023-03-13T09:54:23;98730.81;;;8.71;89.88
5138;BME280;53959;53.626;11.410;2023-03-13T09:56:59;98721.34;;;8.85;90.03
5138;BME280;53959;53.626;11.410;2023-03-13T10:01:59;98722.53;;;8.96;89.68
5138;BME280;53959;53.626;11.410;2023-03-13T10:04:37;98728.53;;;9.00;89.43
5138;BME280;53959;53.626;11.410;2023-03-13T10:07:04;98735.84;;;9.12;89.56
5138;BME280;53959;53.626;11.410;2023-03-13T10:09:31;98732.06;;;9.18;89.29
5138;BME280;53959;53.626;11.410;2023-03-13T10:12:17;98722.22;;;9.20;89.00
5138;BME280;53959;53.626;11.410;2023-03-13T10:14:56;98722.38;;;9.34;89.22
5138;BME280;53959;53.626;11.410;2023-03-13T10:20:16;98723.53;;;9.46;88.56
5138;BME280;53959;53.626;11.410;2023-03-13T10:22:44;98733.81;;;9.52;88.49
5138;BME280;53959;53.626;11.410;2023-03-13T10:25:34;98719.47;;;9.56;88.60
5138;BME280;53959;53.626;11.410;2023-03-13T10:28:00;98726.75;;;9.68;88.29
5138;BME280;53959;53.626;11.410;2023-03-13T10:30:31;98722.06;;;9.73;88.18
5138;BME280;53959;53.626;11.410;2023-03-13T10:33:16;98723.78;;;9.75;87.90
5138;BME280;53959;53.626;11.410;2023-03-13T10:35:43;98724.50;;;9.78;87.75
5138;BME280;53959;53.626;11.410;2023-03-13T10:38:12;98725.25;;;9.80;88.22
5138;BME280;53959;53.626;11.410;2023-03-13T10:40:38;98716.97;;;9.86;88.14
5138;BME280;53959;53.626;11.410;2023-03-13T10:43:11;98710.31;;;9.95;88.03
5138;BME280;53959;53.626;11.410;2023-03-13T10:45:37;98707.41;;;10.00;88.04
5138;BME280;53959;53.626;11.410;2023-03-13T10:50:35;98734.97;;;10.13;87.57
5138;BME280;53959;53.626;11.410;2023-03-13T10:55:43;98728.88;;;10.28;87.20
5138;BME280;53959;53.626;11.410;2023-03-13T10:58:20;98740.00;;;10.35;86.89
5138;BME280;53959;53.626;11.410;2023-03-13T11:00:47;98732.72;;;10.38;86.92
5138;BME280;53959;53.626;11.410;2023-03-13T11:03:25;98733.00;;;10.50;86.72
5138;BME280;53959;53.626;11.410;2023-03-13T11:05:58;98736.22;;;10.55;86.35
5138;BME280;53959;53.626;11.410;2023-03-13T11:08:26;98729.19;;;10.69;85.78
5138;BME280;53959;53.626;11.410;2023-03-13T11:13:37;98739.03;;;10.67;85.99
5138;BME280;53959;53.626;11.410;2023-03-13T11:19:07;98744.09;;;10.72;86.48
5138;BME280;53959;53.626;11.410;2023-03-13T11:21:43;98744.69;;;10.77;86.90
5138;BME280;53959;53.626;11.410;2023-03-13T11:24:33;98735.84;;;10.92;86.69
5138;BME280;53959;53.626;11.410;2023-03-13T11:27:14;98747.50;;;11.20;86.00
5138;BME280;53959;53.626;11.410;2023-03-13T11:29:54;98722.44;;;11.40;85.20
5138;BME280;53959;53.626;11.410;2023-03-13T11:32:24;98719.69;;;11.56;84.40
5138;BME280;53959;53.626;11.410;2023-03-13T11:34:53;98735.66;;;11.70;84.50
5138;BME280;53959;53.626;11.410;2023-03-13T11:37:23;98737.22;;;11.88;83.66
5138;BME280;53959;53.626;11.410;2023-03-13T11:43:04;98729.16;;;12.19;81.95
5138;BME280;53959;53.626;11.410;2023-03-13T11:48:13;98731.84;;;12.46;80.59
5138;BME280;53959;53.626;11.410;2023-03-13T11:51:06;98721.94;;;12.48;80.49
5138;BME280;53959;53.626;11.410;2023-03-13T11:59:25;98708.13;;;12.55;80.16
5138;BME280;53959;53.626;11.410;2023-03-13T12:01:59;98718.59;;;12.58;79.29
5138;BME280;53959;53.626;11.410;2023-03-13T12:04:38;98713.06;;;12.61;78.52
5138;BME280;53959;53.626;11.410;2023-03-13T12:10:08;98724.53;;;12.76;77.82
5138;BME280;53959;53.626;11.410;2023-03-13T12:12:46;98703.03;;;12.79;78.34
5138;BME280;53959;53.626;11.410;2023-03-13T12:15:18;98707.53;;;12.92;77.41
5138;BME280;53959;53.626;11.410;2023-03-13T12:17:49;98702.75;;;12.97;76.71
5138;BME280;53959;53.626;11.410;2023-03-13T12:20:24;98694.38;;;13.16;76.12
5138;BME280;53959;53.626;11.410;2023-03-13T12:25:31;98703.84;;;13.07;75.89
5138;BME280;53959;53.626;11.410;2023-03-13T12:28:18;98696.38;;;12.99;76.33
5138;BME280;53959;53.626;11.410;2023-03-13T12:31:03;98700.53;;;13.03;76.47
5138;BME280;53959;53.626;11.410;2023-03-13T12:33:39;98693.38;;;12.91;76.81
5138;BME280;53959;53.626;11.410;2023-03-13T12:36:16;98683.69;;;12.90;76.57
5138;BME280;53959;53.626;11.410;2023-03-13T12:38:54;98670.03;;;12.95;76.94
5138;BME280;53959;53.626;11.410;2023-03-13T12:41:30;98679.88;;;13.07;76.86
5138;BME280;53959;53.626;11.410;2023-03-13T12:43:58;98675.56;;;13.31;76.52
5138;BME280;53959;53.626;11.410;2023-03-13T12:46:43;98663.75;;;13.35;75.97
5138;BME280;53959;53.626;11.410;2023-03-13T12:54:48;98665.09;;;13.92;73.82
5138;BME280;53959;53.626;11.410;2023-03-13T12:57:42;98658.16;;;13.90;74.49
5138;BME280;53959;53.626;11.410;2023-03-13T13:00:21;98654.16;;;14.08;73.04
5138;BME280;53959;53.626;11.410;2023-03-13T13:03:14;98654.03;;;14.22;72.33
5138;BME280;53959;53.626;11.410;2023-03-13T13:06:08;98652.47;;;14.07;71.94
5138;BME280;53959;53.626;11.410;2023-03-13T13:11:44;98646.72;;;13.88;72.69
5138;BME280;53959;53.626;11.410;2023-03-13T13:16:40;98654.97;;;14.21;71.46
5138;BME280;53959;53.626;11.410;2023-03-13T13:24:52;98644.69;;;14.65;68.21
5138;BME280;53959;53.626;11.410;2023-03-13T13:29:57;98630.06;;;14.33;68.65
5138;BME280;53959;53.626;11.410;2023-03-13T13:32:35;98633.19;;;14.27;68.59
5138;BME280;53959;53.626;11.410;2023-03-13T13:35:04;98629.38;;;14.43;67.37
5138;BME280;53959;53.626;11.410;2023-03-13T13:37:33;98622.34;;;15.47;64.98
5138;BME280;53959;53.626;11.410;2023-03-13T13:42:58;98610.91;;;14.40;67.00
5138;BME280;53959;53.626;11.410;2023-03-13T13:45:32;98615.19;;;14.42;66.79
5138;BME280;53959;53.626;11.410;2023-03-13T13:59:02;98628.75;;;14.02;69.17
5138;BME280;53959;53.626;11.410;2023-03-13T14:01:29;98601.97;;;14.04;69.49
5138;BME280;53959;53.626;11.410;2023-03-13T14:04:06;98610.19;;;14.01;69.00
5138;BME280;53959;53.626;11.410;2023-03-13T14:06:35;98600.34;;;14.14;68.08
5138;BME280;53959;53.626;11.410;2023-03-13T14:09:15;98595.97;;;14.13;69.10
5138;BME280;53959;53.626;11.410;2023-03-13T14:11:45;98605.66;;;14.51;67.81
5138;BME280;53959;53.626;11.410;2023-03-13T14:14:20;98600.59;;;14.59;66.53
5138;BME280;53959;53.626;11.410;2023-03-13T14:16:51;98600.00;;;14.55;66.53
5138;BME280;53959;53.626;11.410;2023-03-13T14:19:34;98603.53;;;14.43;66.49
5138;BME280;53959;53.626;11.410;2023-03-13T14:22:05;98586.66;;;14.43;66.16
5138;BME280;53959;53.626;11.410;2023-03-13T14:24:30;98599.50;;;14.38;66.27
5138;BME280;53959;53.626;11.410;2023-03-13T14:26:56;98576.47;;;14.48;64.87
5138;BME280;53959;53.626;11.410;2023-03-13T14:29:21;98607.56;;;14.49;65.38
5138;BME280;53959;53.626;11.410;2023-03-13T14:31:58;98589.22;;;14.68;64.60
5138;BME280;53959;53.626;11.410;2023-03-13T14:34:24;98590.81;;;14.71;64.05
5138;BME280;53959;53.626;11.410;2023-03-13T14:36:56;98577.97;;;14.76;62.70
5138;BME280;53959;53.626;11.410;2023-03-13T14:42:01;98580.00;;;14.72;61.34